createdAt,value
2019-04-07T00:02:20.707Z,24.45
2019-04-07T00:05:11.896Z,22.48
2019-04-07T00:07:53.093Z,27.02
2019-04-07T00:10:40.185Z,22.15
2019-04-07T00:13:25.892Z,26.70
2019-04-07T00:16:11.223Z,23.70
2019-04-07T00:18:55.888Z,23.38
2019-04-07T00:21:40.971Z,29.52
2019-04-07T00:24:25.705Z,23.92
2019-04-07T00:27:10.533Z,25.23
2019-04-07T00:29:55.665Z,25.40
2019-04-07T00:32:41.375Z,22.75
2019-04-07T00:35:31.218Z,21.57
2019-04-07T00:38:13.921Z,29.45
2019-04-07T00:40:59.221Z,26.20
2019-04-07T00:43:44.657Z,26.62
2019-04-07T00:46:29.568Z,30.55
2019-04-07T00:49:15.062Z,28.02
2019-04-07T00:52:01.416Z,28.70
2019-04-07T00:54:46.968Z,30.25
2019-04-07T00:57:32.076Z,25.20
2019-04-07T01:00:18.171Z,25.10
2019-04-07T01:03:04.075Z,24.47
2019-04-07T01:05:49.931Z,23.15
2019-04-07T01:08:34.768Z,24.75
2019-04-07T01:11:20.143Z,31.62
2019-04-07T01:14:05.968Z,28.07
2019-04-07T01:16:52.882Z,25.90
2019-04-07T01:19:38.307Z,24.95
2019-04-07T01:22:23.432Z,25.80
2019-04-07T01:25:08.929Z,30.30
2019-04-07T01:27:54.445Z,30.75
2019-04-07T01:30:41.445Z,26.57
2019-04-07T01:33:26.731Z,25.60
2019-04-07T01:36:11.635Z,25.75
2019-04-07T01:38:56.530Z,26.73
2019-04-07T01:41:58.865Z,30.12
2019-04-07T01:45:02.764Z,29.40
2019-04-07T01:48:01.686Z,30.43
2019-04-07T01:51:05.651Z,27.67
2019-04-07T01:54:05.360Z,29.32
2019-04-07T01:57:09.290Z,25.95
2019-04-07T02:00:02.983Z,28.02
2019-04-07T02:02:56.946Z,34.40
2019-04-07T02:05:59.154Z,28.92
2019-04-07T02:08:48.028Z,27.77
2019-04-07T02:11:45.154Z,25.50
2019-04-07T02:14:32.463Z,31.75
2019-04-07T02:17:22.322Z,33.90
2019-04-07T02:20:14.774Z,28.95
2019-04-07T02:23:09.556Z,35.90
2019-04-07T02:26:00.926Z,34.25
2019-04-07T02:29:07.998Z,31.42
2019-04-07T02:32:06.114Z,30.95
2019-04-07T02:34:53.441Z,31.27
2019-04-07T02:37:46.761Z,24.85
2019-04-07T02:40:51.363Z,29.10
2019-04-07T02:43:39.022Z,26.77
2019-04-07T02:46:27.011Z,33.00
2019-04-07T02:49:33.822Z,27.40
2019-04-07T02:52:25.030Z,27.82
2019-04-07T02:55:29.902Z,34.90
2019-04-07T02:58:32.667Z,28.47
2019-04-07T03:01:26.482Z,33.30
2019-04-07T03:04:14.272Z,30.80
2019-04-07T03:07:02.565Z,32.08
2019-04-07T03:09:50.429Z,26.33
2019-04-07T03:12:41.412Z,29.57
2019-04-07T03:15:28.274Z,28.50
2019-04-07T03:18:26.593Z,33.67
2019-04-07T03:21:19.632Z,25.40
2019-04-07T03:24:09.421Z,28.12
2019-04-07T03:26:56.587Z,38.33
2019-04-07T03:29:53.934Z,29.27
2019-04-07T03:32:49.314Z,32.45
2019-04-07T03:35:42.326Z,31.52
2019-04-07T03:38:28.968Z,31.23
2019-04-07T03:41:16.245Z,27.42
2019-04-07T03:44:03.532Z,33.85
2019-04-07T03:46:59.870Z,33.15
2019-04-07T03:49:47.758Z,29.48
2019-04-07T03:52:37.602Z,30.50
2019-04-07T03:55:28.249Z,29.18
2019-04-07T03:58:16.238Z,32.23
2019-04-07T04:01:08.315Z,34.45
2019-04-07T04:04:02.172Z,31.55
2019-04-07T04:07:20.265Z,30.27
2019-04-07T04:10:01.120Z,30.97
2019-04-07T04:12:49.919Z,31.12
2019-04-07T04:15:38.200Z,31.55
2019-04-07T04:18:23.891Z,30.80
2019-04-07T04:21:09.151Z,28.65
2019-04-07T04:23:55.046Z,29.75
2019-04-07T04:26:40.026Z,30.37
2019-04-07T04:29:25.231Z,29.60
2019-04-07T04:32:10.628Z,33.83
2019-04-07T04:34:56.245Z,32.25
2019-04-07T04:37:48.174Z,30.85
2019-04-07T04:40:30.267Z,30.57
2019-04-07T04:43:15.674Z,35.10
2019-04-07T04:46:01.321Z,29.00
2019-04-07T04:48:47.295Z,27.37
2019-04-07T04:51:36.949Z,26.85
2019-04-07T04:54:19.658Z,23.05
2019-04-07T04:57:07.860Z,25.20
2019-04-07T04:59:52.632Z,26.62
2019-04-07T05:02:38.308Z,27.50
2019-04-07T05:05:24.378Z,27.35
2019-04-07T05:08:09.518Z,32.45
2019-04-07T05:10:54.912Z,32.38
2019-04-07T05:13:41.242Z,34.35
2019-04-07T05:16:27.578Z,37.05
2019-04-07T05:19:13.440Z,38.88
2019-04-07T05:21:59.866Z,42.90
2019-04-07T05:24:45.510Z,41.00
2019-04-07T05:27:30.405Z,46.75
2019-04-07T05:30:15.771Z,48.38
2019-04-07T05:33:00.951Z,51.53
2019-04-07T05:35:45.947Z,52.58
2019-04-07T05:38:31.159Z,53.95
2019-04-07T05:41:16.410Z,48.35
2019-04-07T05:44:02.547Z,54.30
2019-04-07T05:46:49.609Z,50.15
2019-04-07T05:49:34.581Z,53.73
2019-04-07T05:52:19.544Z,53.52
2019-04-07T05:55:04.532Z,50.25
2019-04-07T05:57:49.963Z,54.38
2019-04-07T06:00:35.187Z,54.48
2019-04-07T06:03:20.458Z,59.00
2019-04-07T06:06:05.854Z,51.18
2019-04-07T06:08:50.743Z,50.30
2019-04-07T06:11:36.248Z,52.43
2019-04-07T06:14:21.420Z,55.95
2019-04-07T06:17:07.324Z,55.08
2019-04-07T06:19:53.306Z,54.75
2019-04-07T06:22:38.811Z,60.85
2019-04-07T06:25:24.998Z,61.75
2019-04-07T06:28:10.788Z,63.25
2019-04-07T06:30:59.193Z,59.88
2019-04-07T06:33:45.824Z,60.45
2019-04-07T06:36:32.852Z,59.50
2019-04-07T06:39:19.752Z,56.55
2019-04-07T06:42:05.818Z,55.43
2019-04-07T06:44:52.173Z,58.73
2019-04-07T06:47:40.298Z,60.03
2019-04-07T06:50:43.912Z,56.83
2019-04-07T06:53:36.937Z,57.95
2019-04-07T06:56:24.311Z,63.78
2019-04-07T06:59:15.563Z,65.72
2019-04-07T07:02:05.527Z,63.48
2019-04-07T07:05:11.211Z,66.70
2019-04-07T07:08:10.170Z,58.15
2019-04-07T07:11:05.819Z,57.83
2019-04-07T07:14:09.599Z,57.90
2019-04-07T07:17:02.990Z,58.52
2019-04-07T07:19:57.465Z,59.15
2019-04-07T07:22:49.477Z,64.82
2019-04-07T07:25:34.924Z,65.83
2019-04-07T07:28:21.111Z,69.30
2019-04-07T07:31:06.251Z,59.65
2019-04-07T07:33:51.494Z,62.70
2019-04-07T07:36:37.052Z,58.15
2019-04-07T07:39:23.155Z,55.92
2019-04-07T07:42:10.619Z,57.40
2019-04-07T07:44:56.032Z,60.17
2019-04-07T07:47:41.595Z,59.18
2019-04-07T07:50:28.356Z,57.27
2019-04-07T07:53:13.556Z,49.53
2019-04-07T07:55:58.551Z,56.55
2019-04-07T07:58:43.951Z,57.88
2019-04-07T08:01:29.056Z,52.20
2019-04-07T08:04:15.172Z,53.25
2019-04-07T08:07:02.357Z,54.75
2019-04-07T08:09:48.036Z,56.48
2019-04-07T08:12:34.956Z,55.03
2019-04-07T08:15:25.508Z,49.65
2019-04-07T08:18:08.740Z,55.10
2019-04-07T08:20:54.409Z,48.73
2019-04-07T08:23:43.071Z,50.58
2019-04-07T08:26:26.366Z,48.15
2019-04-07T08:29:13.016Z,43.70
2019-04-07T08:31:59.148Z,43.85
2019-04-07T08:34:44.913Z,43.50
2019-04-07T08:37:30.787Z,40.33
2019-04-07T08:40:16.364Z,48.90
2019-04-07T08:43:01.419Z,38.80
2019-04-07T08:45:47.106Z,43.30
2019-04-07T08:48:32.284Z,42.15
2019-04-07T08:51:17.518Z,38.30
2019-04-07T08:54:04.568Z,38.70
2019-04-07T08:56:50.278Z,34.78
2019-04-07T08:59:35.444Z,35.10
2019-04-07T09:02:20.171Z,33.38
2019-04-07T09:05:09.120Z,33.88
2019-04-07T09:07:55.840Z,33.73
2019-04-07T09:10:49.166Z,34.45
2019-04-07T09:16:25.063Z,32.33
2019-04-07T09:19:25.218Z,31.95
2019-04-07T09:22:12.786Z,30.45
2019-04-07T09:25:03.437Z,38.90
2019-04-07T09:27:52.264Z,27.25
2019-04-07T09:30:56.342Z,29.77
2019-04-07T09:33:57.214Z,28.67
2019-04-07T09:36:59.185Z,28.80
2019-04-07T09:40:01.054Z,25.57
2019-04-07T09:42:47.120Z,26.87
2019-04-07T09:45:50.696Z,25.43
2019-04-07T09:48:53.060Z,23.25
2019-04-07T09:51:46.191Z,24.80
2019-04-07T09:54:53.831Z,25.52
2019-04-07T09:57:53.884Z,36.08
2019-04-07T10:00:44.300Z,39.38
2019-04-07T10:03:47.930Z,42.17
2019-04-07T10:06:39.334Z,35.80
2019-04-07T10:09:45.877Z,38.92
2019-04-07T10:12:39.233Z,43.73
2019-04-07T10:15:43.219Z,41.68
2019-04-07T10:18:46.755Z,43.68
2019-04-07T10:21:42.933Z,38.45
2019-04-07T10:24:30.413Z,41.18
2019-04-07T10:27:18.582Z,40.75
2019-04-07T10:30:13.655Z,37.95
2019-04-07T10:33:00.861Z,44.23
2019-04-07T10:36:04.906Z,41.48
2019-04-07T10:39:08.808Z,43.02
2019-04-07T10:42:02.527Z,39.15
2019-04-07T10:44:59.118Z,43.55
2019-04-07T10:47:48.682Z,33.58
2019-04-07T10:50:52.044Z,37.08
2019-04-07T10:53:56.270Z,38.25
2019-04-07T10:56:43.869Z,32.63
2019-04-07T10:59:42.814Z,34.83
2019-04-07T11:02:29.967Z,35.80
2019-04-07T11:05:36.222Z,31.97
2019-04-07T11:08:24.296Z,33.30
2019-04-07T11:11:18.056Z,33.98
2019-04-07T11:14:22.887Z,29.82
2019-04-07T11:17:19.398Z,30.00
2019-04-07T11:20:25.826Z,29.82
2019-04-07T11:23:15.606Z,34.00
2019-04-07T11:26:05.400Z,31.17
2019-04-07T11:28:52.551Z,30.60
2019-04-07T11:31:45.108Z,31.48
2019-04-07T11:34:41.432Z,28.67
2019-04-07T11:37:32.766Z,28.83
2019-04-07T11:40:41.934Z,31.80
2019-04-07T11:43:32.680Z,29.52
2019-04-07T11:46:36.536Z,34.30
2019-04-07T11:49:30.162Z,29.37
2019-04-07T11:52:23.578Z,28.98
2019-04-07T11:55:23.792Z,28.10
2019-04-07T11:58:17.752Z,26.52
2019-04-07T12:03:53.451Z,28.65
2019-04-07T12:06:39.702Z,30.40
2019-04-07T12:09:41.944Z,25.97
2019-04-07T12:12:49.433Z,26.25
2019-04-07T12:15:42.960Z,28.25
2019-04-07T12:18:38.759Z,25.62
2019-04-07T12:21:41.068Z,26.62
2019-04-07T12:24:46.268Z,25.32
2019-04-07T12:27:33.448Z,26.15
2019-04-07T12:30:37.927Z,25.57
2019-04-07T12:33:42.106Z,27.40
2019-04-07T12:36:30.734Z,28.50
2019-04-07T12:39:34.178Z,26.75
2019-04-07T12:42:21.413Z,26.50
2019-04-07T12:45:20.011Z,25.35
2019-04-07T12:48:11.308Z,32.35
2019-04-07T12:51:07.376Z,31.07
2019-04-07T12:54:00.367Z,26.55
2019-04-07T12:56:47.798Z,29.90
2019-04-07T12:59:47.007Z,28.50
2019-04-07T13:02:40.317Z,27.52
2019-04-07T13:05:39.536Z,30.25
2019-04-07T13:08:43.630Z,25.17
2019-04-07T13:11:37.459Z,27.77
2019-04-07T13:14:26.951Z,23.35
2019-04-07T13:17:23.455Z,25.68
2019-04-07T13:20:10.810Z,29.90
2019-04-07T13:22:58.733Z,27.32
2019-04-07T13:25:54.443Z,27.62
2019-04-07T13:28:53.281Z,24.63
2019-04-07T13:31:40.617Z,21.45
2019-04-07T13:34:31.133Z,19.50
2019-04-07T13:40:15.837Z,19.60
2019-04-07T13:43:12.303Z,23.15
2019-04-07T13:45:59.116Z,21.55
2019-04-07T13:48:49.537Z,21.25
2019-04-07T13:51:52.963Z,18.32
2019-04-07T13:54:56.947Z,21.02
2019-04-07T13:57:55.586Z,19.25
2019-04-07T14:00:57.350Z,16.12
2019-04-07T14:03:58.878Z,20.92
2019-04-07T14:09:34.160Z,18.35
2019-04-07T14:12:34.505Z,18.98
2019-04-07T14:15:28.122Z,16.77
2019-04-07T14:18:27.730Z,18.57
2019-04-07T14:21:21.461Z,16.12
2019-04-07T14:24:23.896Z,17.87
2019-04-07T14:27:12.151Z,16.37
2019-04-07T14:30:19.142Z,16.30
2019-04-07T14:33:18.361Z,15.93
2019-04-07T14:36:06.291Z,18.00
2019-04-07T14:38:56.012Z,16.23
2019-04-07T14:42:04.790Z,18.25
2019-04-07T14:44:50.036Z,14.80
2019-04-07T14:47:37.089Z,19.03
2019-04-07T14:50:25.236Z,16.50
2019-04-07T14:53:25.369Z,16.30
2019-04-07T14:56:12.510Z,15.60
2019-04-07T14:59:06.580Z,14.35
2019-04-07T15:01:55.696Z,13.18
2019-04-07T15:04:49.554Z,13.48
2019-04-07T15:07:36.698Z,13.98
2019-04-07T15:10:24.435Z,17.10
2019-04-07T15:13:14.368Z,14.07
2019-04-07T15:16:00.368Z,13.98
2019-04-07T15:18:46.763Z,11.38
2019-04-07T15:21:32.820Z,12.55
2019-04-07T15:24:18.695Z,14.25
2019-04-07T15:27:05.903Z,14.07
2019-04-07T15:29:51.398Z,11.10
2019-04-07T15:32:36.401Z,15.48
2019-04-07T15:35:23.340Z,15.03
2019-04-07T15:38:08.803Z,15.83
2019-04-07T15:40:54.407Z,13.93
2019-04-07T15:43:40.056Z,13.83
2019-04-07T15:46:25.699Z,13.15
2019-04-07T15:49:12.697Z,17.10
2019-04-07T15:51:57.720Z,13.93
2019-04-07T15:54:43.405Z,13.35
2019-04-07T15:57:29.049Z,10.65
2019-04-07T16:00:15.292Z,13.03
2019-04-07T16:03:00.762Z,10.70
2019-04-07T16:05:46.501Z,11.90
2019-04-07T16:08:32.014Z,13.10
2019-04-07T16:11:19.018Z,12.58
2019-04-07T16:14:08.517Z,12.88
2019-04-07T16:16:52.802Z,14.63
2019-04-07T16:19:42.524Z,12.00
2019-04-07T16:22:25.692Z,11.65
2019-04-07T16:25:12.149Z,12.05
2019-04-07T16:27:59.117Z,10.72
2019-04-07T16:30:48.529Z,10.80
2019-04-07T16:33:33.982Z,11.08
2019-04-07T16:36:18.428Z,12.63
2019-04-07T16:39:09.086Z,14.73
2019-04-07T16:41:53.458Z,12.53
2019-04-07T16:44:42.552Z,12.25
2019-04-07T16:47:29.266Z,12.40
2019-04-07T16:50:13.301Z,13.88
2019-04-07T16:53:02.899Z,14.25
2019-04-07T16:55:48.893Z,13.50
2019-04-07T16:58:35.347Z,11.57
2019-04-07T17:01:18.836Z,12.95
2019-04-07T17:04:04.091Z,13.38
2019-04-07T17:06:59.243Z,11.73
2019-04-07T17:09:36.680Z,13.40
2019-04-07T17:12:21.663Z,12.58
2019-04-07T17:15:07.845Z,12.50
2019-04-07T17:17:54.659Z,14.95
2019-04-07T17:20:39.755Z,11.20
2019-04-07T17:23:26.121Z,13.43
2019-04-07T17:26:11.636Z,13.75
2019-04-07T17:28:58.238Z,13.98
2019-04-07T17:31:44.383Z,12.78
2019-04-07T17:34:29.456Z,14.23
2019-04-07T17:37:15.083Z,12.47
2019-04-07T17:40:11.335Z,12.70
2019-04-07T17:42:57.419Z,12.88
2019-04-07T17:46:02.500Z,14.90
2019-04-07T17:48:56.752Z,15.00
2019-04-07T17:51:56.315Z,13.25
2019-04-07T17:55:00.278Z,12.73
2019-04-07T17:57:56.472Z,14.58
2019-04-07T18:00:49.354Z,14.23
2019-04-07T18:06:40.614Z,13.40
2019-04-07T18:09:30.988Z,15.70
2019-04-07T18:12:27.478Z,14.45
2019-04-07T18:15:31.575Z,14.07
2019-04-07T18:18:23.485Z,14.87
2019-04-07T18:21:13.300Z,13.25
2019-04-07T18:24:05.518Z,14.90
2019-04-07T18:27:12.570Z,13.38
2019-04-07T18:30:16.406Z,14.03
2019-04-07T18:33:19.286Z,12.88
2019-04-07T18:36:21.163Z,15.78
2019-04-07T18:39:26.011Z,18.70
2019-04-07T18:42:17.796Z,19.37
2019-04-07T18:45:12.168Z,15.63
2019-04-07T18:48:14.801Z,15.50
2019-04-07T18:51:02.936Z,19.02
2019-04-07T18:53:59.733Z,15.00
2019-04-07T18:57:03.963Z,15.95
2019-04-07T19:00:01.016Z,14.25
2019-04-07T19:02:46.114Z,14.58
2019-04-07T19:05:49.179Z,15.90
2019-04-07T19:08:39.189Z,16.65
2019-04-07T19:11:29.819Z,17.52
2019-04-07T19:14:40.135Z,15.72
2019-04-07T19:17:23.422Z,16.50
2019-04-07T19:20:26.378Z,13.95
2019-04-07T19:23:16.406Z,15.50
2019-04-07T19:26:18.548Z,14.63
2019-04-07T19:29:23.276Z,16.93
2019-04-07T19:32:13.464Z,15.15
2019-04-07T19:35:04.392Z,15.33
2019-04-07T19:41:13.105Z,18.30
2019-04-07T19:44:17.990Z,17.85
2019-04-07T19:47:08.830Z,16.30
2019-04-07T19:50:12.578Z,16.95
2019-04-07T19:53:10.175Z,14.90
2019-04-07T19:55:56.488Z,17.12
2019-04-07T19:58:47.013Z,15.55
2019-04-07T20:01:44.343Z,15.28
2019-04-07T20:04:32.720Z,17.23
2019-04-07T20:07:37.958Z,14.05
2019-04-07T20:10:38.016Z,16.42
2019-04-07T20:13:25.017Z,18.37
2019-04-07T20:16:18.148Z,19.62
2019-04-07T20:19:22.307Z,15.20
2019-04-07T20:22:27.127Z,24.43
2019-04-07T20:25:17.531Z,27.93
2019-04-07T20:28:20.188Z,29.75
2019-04-07T20:31:08.239Z,29.85
2019-04-07T20:34:02.247Z,27.70
2019-04-07T20:37:05.107Z,23.38
2019-04-07T20:39:53.231Z,31.20
2019-04-07T20:42:40.246Z,38.75
2019-04-07T20:45:32.467Z,47.17
2019-04-07T20:48:19.499Z,52.93
2019-04-07T20:51:19.077Z,39.35
2019-04-07T20:54:23.526Z,65.22
2019-04-07T20:57:22.357Z,46.48
2019-04-07T21:00:08.426Z,65.15
2019-04-07T21:03:15.288Z,65.05
2019-04-07T21:05:54.318Z,66.65
2019-04-07T21:11:56.712Z,57.98
2019-04-07T21:14:47.297Z,67.50
2019-04-07T21:17:50.236Z,54.30
2019-04-07T21:20:38.900Z,61.25
2019-04-07T21:23:30.065Z,56.73
2019-04-07T21:26:17.870Z,58.60
2019-04-07T21:29:10.555Z,59.42
2019-04-07T21:31:57.278Z,58.98
2019-04-07T21:35:03.089Z,60.85
2019-04-07T21:37:58.872Z,60.30
2019-04-07T21:41:01.899Z,52.53
2019-04-07T21:43:48.855Z,53.45
2019-04-07T21:46:52.056Z,55.92
2019-04-07T21:49:58.100Z,65.60
2019-04-07T21:52:53.142Z,55.83
2019-04-07T21:58:52.011Z,50.73
2019-04-07T22:01:46.266Z,46.13
2019-04-07T22:04:36.244Z,52.23
2019-04-07T22:07:35.628Z,52.93
2019-04-07T22:10:22.914Z,52.50
2019-04-07T22:13:09.546Z,50.00
2019-04-07T22:15:59.292Z,57.78
2019-04-07T22:18:41.857Z,49.25
2019-04-07T22:21:27.743Z,55.55
2019-04-07T22:24:13.115Z,58.23
2019-04-07T22:26:59.285Z,53.30
2019-04-07T22:29:44.952Z,59.33
2019-04-07T22:32:30.973Z,41.85
2019-04-07T22:35:16.888Z,57.85
2019-04-07T22:38:03.162Z,60.00
2019-04-07T22:40:49.968Z,55.10
2019-04-07T22:43:35.539Z,57.80
2019-04-07T22:46:24.597Z,49.38
2019-04-07T22:49:07.163Z,50.67
2019-04-07T22:51:56.096Z,72.32
2019-04-07T22:54:42.232Z,57.43
2019-04-07T22:57:29.187Z,53.87
2019-04-07T23:00:16.950Z,50.40
2019-04-07T23:03:04.198Z,62.50
2019-04-07T23:05:49.760Z,56.02
2019-04-07T23:08:36.979Z,55.83
2019-04-07T23:11:22.515Z,69.87
2019-04-07T23:14:07.508Z,62.55
2019-04-07T23:16:52.342Z,60.40
2019-04-07T23:19:37.808Z,65.65
2019-04-07T23:22:22.865Z,69.32
2019-04-07T23:25:09.914Z,64.37
2019-04-07T23:27:54.823Z,72.85
2019-04-07T23:30:40.709Z,61.77
2019-04-07T23:33:26.192Z,57.53
2019-04-07T23:36:11.766Z,64.45
2019-04-07T23:38:57.967Z,61.23
2019-04-07T23:41:43.546Z,60.98
2019-04-07T23:44:29.681Z,70.80
2019-04-07T23:47:15.256Z,83.27
2019-04-07T23:50:00.743Z,58.58
2019-04-07T23:52:45.901Z,70.37
2019-04-07T23:55:31.631Z,64.80
2019-04-07T23:58:16.943Z,66.72
